sensor_id;sensor_type;location;lat;lon;timestamp;temperature;humidity
64549;DHT22;49838;51.798;10.954;2024-01-06T00:01:13;12.30;49.50
64549;DHT22;49838;51.798;10.954;2024-01-06T00:03:41;12.30;49.40
64549;DHT22;49838;51.798;10.954;2024-01-06T00:06:10;12.30;49.60
64549;DHT22;49838;51.798;10.954;2024-01-06T00:08:39;12.30;49.70
64549;DHT22;49838;51.798;10.954;2024-01-06T00:11:07;12.30;49.60
64549;DHT22;49838;51.798;10.954;2024-01-06T00:13:34;12.30;49.40
64549;DHT22;49838;51.798;10.954;2024-01-06T00:16:02;12.30;49.50
64549;DHT22;49838;51.798;10.954;2024-01-06T00:18:29;12.20;49.60
64549;DHT22;49838;51.798;10.954;2024-01-06T00:20:56;12.30;49.70
64549;DHT22;49838;51.798;10.954;2024-01-06T00:23:23;12.30;49.60
64549;DHT22;49838;51.798;10.954;2024-01-06T00:25:52;12.30;49.60
64549;DHT22;49838;51.798;10.954;2024-01-06T00:28:19;12.30;49.70
64549;DHT22;49838;51.798;10.954;2024-01-06T00:30:47;12.30;49.60
64549;DHT22;49838;51.798;10.954;2024-01-06T00:33:14;12.30;49.50
64549;DHT22;49838;51.798;10.954;2024-01-06T00:35:41;12.30;49.60
64549;DHT22;49838;51.798;10.954;2024-01-06T00:38:08;12.30;49.70
64549;DHT22;49838;51.798;10.954;2024-01-06T00:40:36;12.30;49.80
64549;DHT22;49838;51.798;10.954;2024-01-06T00:43:04;12.20;49.70
64549;DHT22;49838;51.798;10.954;2024-01-06T00:45:32;12.20;49.80
64549;DHT22;49838;51.798;10.954;2024-01-06T00:47:59;12.30;49.80
64549;DHT22;49838;51.798;10.954;2024-01-06T00:50:26;12.30;49.80
64549;DHT22;49838;51.798;10.954;2024-01-06T00:52:53;12.30;49.80
64549;DHT22;49838;51.798;10.954;2024-01-06T00:55:22;12.30;49.80
64549;DHT22;49838;51.798;10.954;2024-01-06T00:57:50;12.30;49.80
64549;DHT22;49838;51.798;10.954;2024-01-06T01:00:19;12.30;49.80
64549;DHT22;49838;51.798;10.954;2024-01-06T01:02:46;12.30;50.40
64549;DHT22;49838;51.798;10.954;2024-01-06T01:05:13;12.30;49.70
64549;DHT22;49838;51.798;10.954;2024-01-06T01:07:41;12.30;49.80
64549;DHT22;49838;51.798;10.954;2024-01-06T01:10:08;12.30;49.80
64549;DHT22;49838;51.798;10.954;2024-01-06T01:12:36;12.40;49.70
64549;DHT22;49838;51.798;10.954;2024-01-06T01:15:06;12.30;49.70
64549;DHT22;49838;51.798;10.954;2024-01-06T01:17:35;12.30;49.70
64549;DHT22;49838;51.798;10.954;2024-01-06T01:20:03;12.30;49.70
64549;DHT22;49838;51.798;10.954;2024-01-06T01:22:31;12.30;49.70
64549;DHT22;49838;51.798;10.954;2024-01-06T01:24:58;12.40;49.80
64549;DHT22;49838;51.798;10.954;2024-01-06T01:27:31;12.40;49.70
64549;DHT22;49838;51.798;10.954;2024-01-06T01:29:58;12.40;49.60
64549;DHT22;49838;51.798;10.954;2024-01-06T01:32:25;12.40;49.60
64549;DHT22;49838;51.798;10.954;2024-01-06T01:34:54;12.30;49.60
64549;DHT22;49838;51.798;10.954;2024-01-06T01:37:21;12.30;49.60
64549;DHT22;49838;51.798;10.954;2024-01-06T01:39:48;12.30;49.70
64549;DHT22;49838;51.798;10.954;2024-01-06T01:42:15;12.30;49.70
64549;DHT22;49838;51.798;10.954;2024-01-06T01:44:43;12.30;49.60
64549;DHT22;49838;51.798;10.954;2024-01-06T01:47:10;12.30;49.60
64549;DHT22;49838;51.798;10.954;2024-01-06T01:49:38;12.20;49.70
64549;DHT22;49838;51.798;10.954;2024-01-06T01:52:07;12.20;49.70
64549;DHT22;49838;51.798;10.954;2024-01-06T01:54:34;12.30;49.70
64549;DHT22;49838;51.798;10.954;2024-01-06T01:57:01;12.30;49.50
64549;DHT22;49838;51.798;10.954;2024-01-06T01:59:29;12.30;49.60
64549;DHT22;49838;51.798;10.954;2024-01-06T02:01:56;12.30;49.50
64549;DHT22;49838;51.798;10.954;2024-01-06T02:04:24;12.30;49.60
64549;DHT22;49838;51.798;10.954;2024-01-06T02:06:51;12.30;49.60
64549;DHT22;49838;51.798;10.954;2024-01-06T02:09:20;12.30;49.60
64549;DHT22;49838;51.798;10.954;2024-01-06T02:11:49;12.30;49.50
64549;DHT22;49838;51.798;10.954;2024-01-06T02:14:17;12.30;49.50
64549;DHT22;49838;51.798;10.954;2024-01-06T02:16:44;12.30;49.50
64549;DHT22;49838;51.798;10.954;2024-01-06T02:19:11;12.30;49.50
64549;DHT22;49838;51.798;10.954;2024-01-06T02:21:41;12.30;49.40
64549;DHT22;49838;51.798;10.954;2024-01-06T02:24:10;12.20;49.50
64549;DHT22;49838;51.798;10.954;2024-01-06T02:26:38;12.30;49.40
64549;DHT22;49838;51.798;10.954;2024-01-06T02:29:05;12.30;49.60
64549;DHT22;49838;51.798;10.954;2024-01-06T02:31:32;12.20;49.60
64549;DHT22;49838;51.798;10.954;2024-01-06T02:33:59;12.30;49.50
64549;DHT22;49838;51.798;10.954;2024-01-06T02:36:27;12.40;49.50
64549;DHT22;49838;51.798;10.954;2024-01-06T02:38:54;12.50;49.40
64549;DHT22;49838;51.798;10.954;2024-01-06T02:41:23;12.50;49.40
64549;DHT22;49838;51.798;10.954;2024-01-06T02:43:51;12.40;49.30
64549;DHT22;49838;51.798;10.954;2024-01-06T02:46:19;12.40;49.40
64549;DHT22;49838;51.798;10.954;2024-01-06T02:48:46;12.50;49.30
64549;DHT22;49838;51.798;10.954;2024-01-06T02:51:13;12.50;49.40
64549;DHT22;49838;51.798;10.954;2024-01-06T02:53:41;12.50;49.50
64549;DHT22;49838;51.798;10.954;2024-01-06T02:56:09;12.50;49.50
64549;DHT22;49838;51.798;10.954;2024-01-06T02:58:38;12.50;49.50
64549;DHT22;49838;51.798;10.954;2024-01-06T03:01:06;12.50;49.40
64549;DHT22;49838;51.798;10.954;2024-01-06T03:03:32;12.40;49.40
64549;DHT22;49838;51.798;10.954;2024-01-06T03:05:59;12.40;49.40
64549;DHT22;49838;51.798;10.954;2024-01-06T03:08:27;12.40;49.30
64549;DHT22;49838;51.798;10.954;2024-01-06T03:10:54;12.40;49.40
64549;DHT22;49838;51.798;10.954;2024-01-06T03:13:21;12.40;49.40
64549;DHT22;49838;51.798;10.954;2024-01-06T03:15:50;12.30;49.50
64549;DHT22;49838;51.798;10.954;2024-01-06T03:18:17;12.30;49.60
64549;DHT22;49838;51.798;10.954;2024-01-06T03:20:44;12.30;49.50
64549;DHT22;49838;51.798;10.954;2024-01-06T03:23:12;12.30;49.50
64549;DHT22;49838;51.798;10.954;2024-01-06T03:25:39;12.30;49.50
64549;DHT22;49838;51.798;10.954;2024-01-06T03:28:06;12.30;49.60
64549;DHT22;49838;51.798;10.954;2024-01-06T03:30:33;12.40;49.50
64549;DHT22;49838;51.798;10.954;2024-01-06T03:33:03;12.30;49.50
64549;DHT22;49838;51.798;10.954;2024-01-06T03:35:31;12.40;49.60
64549;DHT22;49838;51.798;10.954;2024-01-06T03:37:58;12.40;49.50
64549;DHT22;49838;51.798;10.954;2024-01-06T03:40:25;12.50;49.50
64549;DHT22;49838;51.798;10.954;2024-01-06T03:42:52;12.50;49.40
64549;DHT22;49838;51.798;10.954;2024-01-06T03:45:20;12.50;49.40
64549;DHT22;49838;51.798;10.954;2024-01-06T03:47:47;12.60;49.30
64549;DHT22;49838;51.798;10.954;2024-01-06T03:50:15;12.50;49.20
64549;DHT22;49838;51.798;10.954;2024-01-06T03:52:43;12.40;49.40
64549;DHT22;49838;51.798;10.954;2024-01-06T03:55:10;12.40;49.50
64549;DHT22;49838;51.798;10.954;2024-01-06T03:57:38;12.40;49.50
64549;DHT22;49838;51.798;10.954;2024-01-06T04:00:05;12.40;49.50
64549;DHT22;49838;51.798;10.954;2024-01-06T04:02:33;12.40;49.50
64549;DHT22;49838;51.798;10.954;2024-01-06T04:05:00;12.50;49.40
64549;DHT22;49838;51.798;10.954;2024-01-06T04:07:29;12.40;49.40
64549;DHT22;49838;51.798;10.954;2024-01-06T04:09:56;12.50;49.40
64549;DHT22;49838;51.798;10.954;2024-01-06T04:12:23;12.40;49.40
64549;DHT22;49838;51.798;10.954;2024-01-06T04:14:51;12.40;49.40
64549;DHT22;49838;51.798;10.954;2024-01-06T04:17:18;12.40;49.50
64549;DHT22;49838;51.798;10.954;2024-01-06T04:19:46;12.40;49.60
64549;DHT22;49838;51.798;10.954;2024-01-06T04:22:13;12.50;49.60
64549;DHT22;49838;51.798;10.954;2024-01-06T04:24:42;12.50;49.40
64549;DHT22;49838;51.798;10.954;2024-01-06T04:27:09;12.50;49.40
64549;DHT22;49838;51.798;10.954;2024-01-06T04:29:36;12.50;49.40
64549;DHT22;49838;51.798;10.954;2024-01-06T04:32:05;12.60;49.50
64549;DHT22;49838;51.798;10.954;2024-01-06T04:34:33;12.60;49.50
64549;DHT22;49838;51.798;10.954;2024-01-06T04:37:00;12.50;49.40
64549;DHT22;49838;51.798;10.954;2024-01-06T04:39:27;12.50;49.40
64549;DHT22;49838;51.798;10.954;2024-01-06T04:41:56;12.50;49.50
64549;DHT22;49838;51.798;10.954;2024-01-06T04:44:23;12.50;49.50
64549;DHT22;49838;51.798;10.954;2024-01-06T04:46:50;12.50;49.50
64549;DHT22;49838;51.798;10.954;2024-01-06T04:49:18;12.50;49.50
64549;DHT22;49838;51.798;10.954;2024-01-06T04:51:45;12.60;49.50
64549;DHT22;49838;51.798;10.954;2024-01-06T04:54:12;12.60;49.40
64549;DHT22;49838;51.798;10.954;2024-01-06T04:56:39;12.60;49.40
64549;DHT22;49838;51.798;10.954;2024-01-06T04:59:08;12.60;49.40
64549;DHT22;49838;51.798;10.954;2024-01-06T05:01:35;12.70;50.10
64549;DHT22;49838;51.798;10.954;2024-01-06T05:04:03;12.70;49.50
64549;DHT22;49838;51.798;10.954;2024-01-06T05:06:31;12.70;49.50
64549;DHT22;49838;51.798;10.954;2024-01-06T05:08:58;12.70;49.50
64549;DHT22;49838;51.798;10.954;2024-01-06T05:11:25;12.70;49.50
64549;DHT22;49838;51.798;10.954;2024-01-06T05:13:53;12.60;49.40
64549;DHT22;49838;51.798;10.954;2024-01-06T05:16:24;12.60;49.40
64549;DHT22;49838;51.798;10.954;2024-01-06T05:18:52;12.50;49.40
64549;DHT22;49838;51.798;10.954;2024-01-06T05:21:19;12.50;49.50
64549;DHT22;49838;51.798;10.954;2024-01-06T05:23:47;12.50;49.50
64549;DHT22;49838;51.798;10.954;2024-01-06T05:26:14;12.50;49.50
64549;DHT22;49838;51.798;10.954;2024-01-06T05:28:41;12.50;49.50
64549;DHT22;49838;51.798;10.954;2024-01-06T05:31:08;12.50;49.50
64549;DHT22;49838;51.798;10.954;2024-01-06T05:33:37;12.50;49.50
64549;DHT22;49838;51.798;10.954;2024-01-06T05:36:04;12.50;49.40
64549;DHT22;49838;51.798;10.954;2024-01-06T05:38:32;12.40;49.30
64549;DHT22;49838;51.798;10.954;2024-01-06T05:40:59;12.40;49.40
64549;DHT22;49838;51.798;10.954;2024-01-06T05:43:27;12.30;49.30
64549;DHT22;49838;51.798;10.954;2024-01-06T05:45:54;12.30;49.40
64549;DHT22;49838;51.798;10.954;2024-01-06T05:48:21;12.20;49.40
64549;DHT22;49838;51.798;10.954;2024-01-06T05:50:50;12.20;49.50
64549;DHT22;49838;51.798;10.954;2024-01-06T05:53:17;12.10;49.40
64549;DHT22;49838;51.798;10.954;2024-01-06T05:55:45;12.10;49.40
64549;DHT22;49838;51.798;10.954;2024-01-06T05:58:12;12.10;49.40
64549;DHT22;49838;51.798;10.954;2024-01-06T06:00:39;12.20;49.40
64549;DHT22;49838;51.798;10.954;2024-01-06T06:03:07;12.10;49.30
64549;DHT22;49838;51.798;10.954;2024-01-06T06:05:34;12.10;49.40
64549;DHT22;49838;51.798;10.954;2024-01-06T06:08:04;12.00;49.20
64549;DHT22;49838;51.798;10.954;2024-01-06T06:10:31;12.00;49.30
64549;DHT22;49838;51.798;10.954;2024-01-06T06:13:17;12.00;49.20
64549;DHT22;49838;51.798;10.954;2024-01-06T06:15:44;12.00;49.20
64549;DHT22;49838;51.798;10.954;2024-01-06T06:18:12;12.00;49.20
64549;DHT22;49838;51.798;10.954;2024-01-06T06:20:39;12.00;49.30
64549;DHT22;49838;51.798;10.954;2024-01-06T06:23:09;12.00;49.80
64549;DHT22;49838;51.798;10.954;2024-01-06T06:25:36;12.00;49.20
64549;DHT22;49838;51.798;10.954;2024-01-06T06:28:04;12.00;49.20
64549;DHT22;49838;51.798;10.954;2024-01-06T06:30:32;11.90;49.20
64549;DHT22;49838;51.798;10.954;2024-01-06T06:32:59;11.80;49.20
64549;DHT22;49838;51.798;10.954;2024-01-06T06:35:27;11.70;49.10
64549;DHT22;49838;51.798;10.954;2024-01-06T06:37:54;11.70;49.20
64549;DHT22;49838;51.798;10.954;2024-01-06T06:40:22;11.80;49.30
64549;DHT22;49838;51.798;10.954;2024-01-06T06:42:50;11.80;49.20
64549;DHT22;49838;51.798;10.954;2024-01-06T06:45:17;11.70;49.10
64549;DHT22;49838;51.798;10.954;2024-01-06T06:47:48;11.70;49.10
64549;DHT22;49838;51.798;10.954;2024-01-06T06:50:16;11.70;49.10
64549;DHT22;49838;51.798;10.954;2024-01-06T06:52:43;11.70;49.10
64549;DHT22;49838;51.798;10.954;2024-01-06T06:55:11;11.70;49.00
64549;DHT22;49838;51.798;10.954;2024-01-06T06:57:40;11.70;49.10
64549;DHT22;49838;51.798;10.954;2024-01-06T07:00:07;11.60;49.00
64549;DHT22;49838;51.798;10.954;2024-01-06T07:02:35;11.60;49.00
64549;DHT22;49838;51.798;10.954;2024-01-06T07:05:03;11.50;49.00
64549;DHT22;49838;51.798;10.954;2024-01-06T07:07:32;11.40;49.10
64549;DHT22;49838;51.798;10.954;2024-01-06T07:10:00;11.30;49.10
64549;DHT22;49838;51.798;10.954;2024-01-06T07:12:27;11.30;49.20
64549;DHT22;49838;51.798;10.954;2024-01-06T07:14:56;11.20;49.20
64549;DHT22;49838;51.798;10.954;2024-01-06T07:17:24;11.20;49.10
64549;DHT22;49838;51.798;10.954;2024-01-06T07:19:52;11.20;49.10
64549;DHT22;49838;51.798;10.954;2024-01-06T07:22:19;11.20;49.10
64549;DHT22;49838;51.798;10.954;2024-01-06T07:24:47;11.20;49.00
64549;DHT22;49838;51.798;10.954;2024-01-06T07:27:14;11.20;48.90
64549;DHT22;49838;51.798;10.954;2024-01-06T07:29:41;11.20;48.90
64549;DHT22;49838;51.798;10.954;2024-01-06T07:32:10;11.20;48.80
64549;DHT22;49838;51.798;10.954;2024-01-06T07:34:37;11.20;48.80
64549;DHT22;49838;51.798;10.954;2024-01-06T07:37:04;11.20;48.80
64549;DHT22;49838;51.798;10.954;2024-01-06T07:39:32;11.20;48.80
64549;DHT22;49838;51.798;10.954;2024-01-06T07:41:59;11.20;48.80
64549;DHT22;49838;51.798;10.954;2024-01-06T07:44:26;11.20;48.80
64549;DHT22;49838;51.798;10.954;2024-01-06T07:46:53;11.10;48.60
64549;DHT22;49838;51.798;10.954;2024-01-06T07:49:22;11.10;48.70
64549;DHT22;49838;51.798;10.954;2024-01-06T07:51:49;11.00;48.60
64549;DHT22;49838;51.798;10.954;2024-01-06T07:54:16;11.00;48.70
64549;DHT22;49838;51.798;10.954;2024-01-06T07:56:44;10.90;48.70
64549;DHT22;49838;51.798;10.954;2024-01-06T07:59:11;10.90;48.70
64549;DHT22;49838;51.798;10.954;2024-01-06T08:01:38;10.90;48.80
64549;DHT22;49838;51.798;10.954;2024-01-06T08:04:08;10.90;48.80
64549;DHT22;49838;51.798;10.954;2024-01-06T08:06:37;10.90;48.80
64549;DHT22;49838;51.798;10.954;2024-01-06T08:09:04;10.90;48.80
64549;DHT22;49838;51.798;10.954;2024-01-06T08:11:31;10.80;48.80
64549;DHT22;49838;51.798;10.954;2024-01-06T08:13:59;10.80;48.80
64549;DHT22;49838;51.798;10.954;2024-01-06T08:16:26;10.80;48.70
64549;DHT22;49838;51.798;10.954;2024-01-06T08:18:53;10.70;48.50
64549;DHT22;49838;51.798;10.954;2024-01-06T08:21:20;10.60;48.70
64549;DHT22;49838;51.798;10.954;2024-01-06T08:23:49;10.60;48.80
64549;DHT22;49838;51.798;10.954;2024-01-06T08:26:16;10.60;48.90
64549;DHT22;49838;51.798;10.954;2024-01-06T08:28:44;10.70;48.80
64549;DHT22;49838;51.798;10.954;2024-01-06T08:31:11;10.60;48.60
64549;DHT22;49838;51.798;10.954;2024-01-06T08:33:38;10.50;48.60
64549;DHT22;49838;51.798;10.954;2024-01-06T08:36:06;10.50;48.80
64549;DHT22;49838;51.798;10.954;2024-01-06T08:38:34;10.60;48.70
64549;DHT22;49838;51.798;10.954;2024-01-06T08:41:03;10.60;48.60
64549;DHT22;49838;51.798;10.954;2024-01-06T08:43:30;10.50;48.50
64549;DHT22;49838;51.798;10.954;2024-01-06T08:45:57;10.40;48.70
64549;DHT22;49838;51.798;10.954;2024-01-06T08:48:25;10.40;48.90
64549;DHT22;49838;51.798;10.954;2024-01-06T08:50:52;10.40;48.90
64549;DHT22;49838;51.798;10.954;2024-01-06T08:53:19;10.50;48.80
64549;DHT22;49838;51.798;10.954;2024-01-06T08:55:47;10.60;48.80
64549;DHT22;49838;51.798;10.954;2024-01-06T08:58:15;10.50;48.80
64549;DHT22;49838;51.798;10.954;2024-01-06T09:00:43;10.50;48.80
64549;DHT22;49838;51.798;10.954;2024-01-06T09:03:10;10.50;48.90
64549;DHT22;49838;51.798;10.954;2024-01-06T09:05:38;10.50;48.90
64549;DHT22;49838;51.798;10.954;2024-01-06T09:08:06;10.50;48.90
64549;DHT22;49838;51.798;10.954;2024-01-06T09:10:33;10.50;48.90
64549;DHT22;49838;51.798;10.954;2024-01-06T09:13:00;10.60;49.00
64549;DHT22;49838;51.798;10.954;2024-01-06T09:15:29;10.60;48.70
64549;DHT22;49838;51.798;10.954;2024-01-06T09:17:59;10.60;48.70
64549;DHT22;49838;51.798;10.954;2024-01-06T09:20:27;10.50;48.80
64549;DHT22;49838;51.798;10.954;2024-01-06T09:22:54;10.50;48.90
64549;DHT22;49838;51.798;10.954;2024-01-06T09:25:21;10.50;48.90
64549;DHT22;49838;51.798;10.954;2024-01-06T09:27:50;10.50;48.80
64549;DHT22;49838;51.798;10.954;2024-01-06T09:30:18;10.60;48.80
64549;DHT22;49838;51.798;10.954;2024-01-06T09:32:47;10.50;48.70
64549;DHT22;49838;51.798;10.954;2024-01-06T09:35:15;10.50;48.90
64549;DHT22;49838;51.798;10.954;2024-01-06T09:37:42;10.50;48.80
64549;DHT22;49838;51.798;10.954;2024-01-06T09:40:11;10.50;48.90
64549;DHT22;49838;51.798;10.954;2024-01-06T09:42:40;10.50;48.90
64549;DHT22;49838;51.798;10.954;2024-01-06T09:45:07;10.50;48.80
64549;DHT22;49838;51.798;10.954;2024-01-06T09:47:35;10.50;48.80
64549;DHT22;49838;51.798;10.954;2024-01-06T09:50:05;10.50;48.90
64549;DHT22;49838;51.798;10.954;2024-01-06T09:52:37;10.50;48.90
64549;DHT22;49838;51.798;10.954;2024-01-06T09:55:07;10.50;49.10
64549;DHT22;49838;51.798;10.954;2024-01-06T09:57:37;10.50;49.00
64549;DHT22;49838;51.798;10.954;2024-01-06T10:00:06;10.60;49.10
64549;DHT22;49838;51.798;10.954;2024-01-06T10:02:35;10.70;49.00
64549;DHT22;49838;51.798;10.954;2024-01-06T10:05:02;10.70;48.90
64549;DHT22;49838;51.798;10.954;2024-01-06T10:07:31;10.70;48.90
64549;DHT22;49838;51.798;10.954;2024-01-06T10:09:58;10.70;48.90
64549;DHT22;49838;51.798;10.954;2024-01-06T10:12:26;10.80;49.00
64549;DHT22;49838;51.798;10.954;2024-01-06T10:14:54;10.70;48.90
64549;DHT22;49838;51.798;10.954;2024-01-06T10:17:21;10.70;49.00
64549;DHT22;49838;51.798;10.954;2024-01-06T10:19:48;10.60;49.00
64549;DHT22;49838;51.798;10.954;2024-01-06T10:22:17;10.60;49.10
64549;DHT22;49838;51.798;10.954;2024-01-06T10:24:45;10.60;49.10
64549;DHT22;49838;51.798;10.954;2024-01-06T10:27:13;10.70;49.20
64549;DHT22;49838;51.798;10.954;2024-01-06T10:29:40;10.70;49.10
64549;DHT22;49838;51.798;10.954;2024-01-06T10:32:08;10.60;49.10
64549;DHT22;49838;51.798;10.954;2024-01-06T10:34:36;10.70;49.20
64549;DHT22;49838;51.798;10.954;2024-01-06T10:37:04;10.70;49.10
64549;DHT22;49838;51.798;10.954;2024-01-06T10:39:32;10.70;49.10
64549;DHT22;49838;51.798;10.954;2024-01-06T10:42:01;10.70;49.10
64549;DHT22;49838;51.798;10.954;2024-01-06T10:44:30;10.80;49.00
64549;DHT22;49838;51.798;10.954;2024-01-06T10:46:59;10.80;48.80
64549;DHT22;49838;51.798;10.954;2024-01-06T10:49:27;10.80;48.90
64549;DHT22;49838;51.798;10.954;2024-01-06T10:51:55;10.80;48.90
64549;DHT22;49838;51.798;10.954;2024-01-06T10:54:25;10.80;49.00
64549;DHT22;49838;51.798;10.954;2024-01-06T10:56:54;10.70;49.10
64549;DHT22;49838;51.798;10.954;2024-01-06T10:59:25;10.70;49.10
64549;DHT22;49838;51.798;10.954;2024-01-06T11:01:55;10.70;48.90
64549;DHT22;49838;51.798;10.954;2024-01-06T11:04:24;10.80;49.00
64549;DHT22;49838;51.798;10.954;2024-01-06T11:06:51;10.70;49.00
64549;DHT22;49838;51.798;10.954;2024-01-06T11:09:21;10.70;49.00
64549;DHT22;49838;51.798;10.954;2024-01-06T11:11:51;10.60;49.10
64549;DHT22;49838;51.798;10.954;2024-01-06T11:14:21;10.50;49.20
64549;DHT22;49838;51.798;10.954;2024-01-06T11:16:51;10.50;49.10
64549;DHT22;49838;51.798;10.954;2024-01-06T11:25:06;10.50;49.30
64549;DHT22;49838;51.798;10.954;2024-01-06T11:27:34;10.40;49.30
64549;DHT22;49838;51.798;10.954;2024-01-06T11:30:03;10.30;49.30
64549;DHT22;49838;51.798;10.954;2024-01-06T11:32:33;10.30;49.30
64549;DHT22;49838;51.798;10.954;2024-01-06T11:35:04;10.30;49.10
64549;DHT22;49838;51.798;10.954;2024-01-06T11:37:34;10.20;49.20
64549;DHT22;49838;51.798;10.954;2024-01-06T11:40:07;10.20;49.10
64549;DHT22;49838;51.798;10.954;2024-01-06T11:42:36;10.30;49.30
64549;DHT22;49838;51.798;10.954;2024-01-06T11:45:03;10.20;49.20
64549;DHT22;49838;51.798;10.954;2024-01-06T11:47:34;10.10;49.40
64549;DHT22;49838;51.798;10.954;2024-01-06T11:50:02;10.20;49.30
64549;DHT22;49838;51.798;10.954;2024-01-06T11:52:31;10.20;49.50
64549;DHT22;49838;51.798;10.954;2024-01-06T11:54:59;10.10;49.20
64549;DHT22;49838;51.798;10.954;2024-01-06T11:57:28;10.10;49.40
64549;DHT22;49838;51.798;10.954;2024-01-06T11:59:56;10.10;49.40
64549;DHT22;49838;51.798;10.954;2024-01-06T12:02:23;10.10;49.30
64549;DHT22;49838;51.798;10.954;2024-01-06T12:04:52;10.10;49.50
64549;DHT22;49838;51.798;10.954;2024-01-06T12:07:20;10.00;49.50
64549;DHT22;49838;51.798;10.954;2024-01-06T12:09:49;10.00;49.50
64549;DHT22;49838;51.798;10.954;2024-01-06T12:12:17;10.10;49.50
64549;DHT22;49838;51.798;10.954;2024-01-06T12:14:45;10.00;49.60
64549;DHT22;49838;51.798;10.954;2024-01-06T12:17:12;10.00;49.50
64549;DHT22;49838;51.798;10.954;2024-01-06T12:19:40;10.00;49.40
64549;DHT22;49838;51.798;10.954;2024-01-06T12:22:13;10.10;49.50
64549;DHT22;49838;51.798;10.954;2024-01-06T12:24:42;10.00;49.40
64549;DHT22;49838;51.798;10.954;2024-01-06T12:27:09;10.10;49.50
64549;DHT22;49838;51.798;10.954;2024-01-06T12:29:37;10.00;49.40
64549;DHT22;49838;51.798;10.954;2024-01-06T12:32:06;10.00;49.40
64549;DHT22;49838;51.798;10.954;2024-01-06T12:34:34;10.00;49.40
64549;DHT22;49838;51.798;10.954;2024-01-06T12:37:02;10.00;49.50
64549;DHT22;49838;51.798;10.954;2024-01-06T12:39:31;10.00;49.40
64549;DHT22;49838;51.798;10.954;2024-01-06T12:41:58;10.10;49.40
64549;DHT22;49838;51.798;10.954;2024-01-06T12:44:26;10.10;49.40
64549;DHT22;49838;51.798;10.954;2024-01-06T12:46:54;10.10;49.30
64549;DHT22;49838;51.798;10.954;2024-01-06T12:49:21;10.20;49.30
64549;DHT22;49838;51.798;10.954;2024-01-06T12:51:49;10.10;49.20
64549;DHT22;49838;51.798;10.954;2024-01-06T12:54:16;10.00;49.30
64549;DHT22;49838;51.798;10.954;2024-01-06T12:56:45;10.10;49.40
64549;DHT22;49838;51.798;10.954;2024-01-06T12:59:12;10.00;49.40
64549;DHT22;49838;51.798;10.954;2024-01-06T13:01:39;9.90;50.40
64549;DHT22;49838;51.798;10.954;2024-01-06T13:04:07;9.90;50.40
64549;DHT22;49838;51.798;10.954;2024-01-06T13:06:34;10.00;49.60
64549;DHT22;49838;51.798;10.954;2024-01-06T13:09:02;10.00;49.60
64549;DHT22;49838;51.798;10.954;2024-01-06T13:11:32;9.90;50.20
64549;DHT22;49838;51.798;10.954;2024-01-06T13:14:01;9.90;50.40
64549;DHT22;49838;51.798;10.954;2024-01-06T13:16:29;9.90;50.40
64549;DHT22;49838;51.798;10.954;2024-01-06T13:18:56;9.90;50.40
64549;DHT22;49838;51.798;10.954;2024-01-06T13:21:23;9.90;50.50
64549;DHT22;49838;51.798;10.954;2024-01-06T13:23:50;9.90;50.50
64549;DHT22;49838;51.798;10.954;2024-01-06T13:26:18;9.90;50.50
64549;DHT22;49838;51.798;10.954;2024-01-06T13:28:45;9.80;50.60
64549;DHT22;49838;51.798;10.954;2024-01-06T13:31:14;9.80;50.70
64549;DHT22;49838;51.798;10.954;2024-01-06T13:33:41;9.70;50.70
64549;DHT22;49838;51.798;10.954;2024-01-06T13:36:08;9.60;50.90
64549;DHT22;49838;51.798;10.954;2024-01-06T13:38:36;9.60;51.00
64549;DHT22;49838;51.798;10.954;2024-01-06T13:41:03;9.60;51.10
64549;DHT22;49838;51.798;10.954;2024-01-06T13:43:30;9.50;51.10
64549;DHT22;49838;51.798;10.954;2024-01-06T13:45:57;9.50;50.90
64549;DHT22;49838;51.798;10.954;2024-01-06T13:48:26;9.60;50.80
64549;DHT22;49838;51.798;10.954;2024-01-06T13:50:54;9.60;51.00
64549;DHT22;49838;51.798;10.954;2024-01-06T13:53:22;9.50;51.10
64549;DHT22;49838;51.798;10.954;2024-01-06T13:55:49;9.50;51.10
64549;DHT22;49838;51.798;10.954;2024-01-06T13:58:17;9.40;51.20
64549;DHT22;49838;51.798;10.954;2024-01-06T14:00:45;9.40;50.90
64549;DHT22;49838;51.798;10.954;2024-01-06T14:03:12;9.40;51.10
64549;DHT22;49838;51.798;10.954;2024-01-06T14:05:40;9.40;51.30
64549;DHT22;49838;51.798;10.954;2024-01-06T14:08:08;9.30;51.20
64549;DHT22;49838;51.798;10.954;2024-01-06T14:10:35;9.40;51.20
64549;DHT22;49838;51.798;10.954;2024-01-06T14:13:03;9.40;51.00
64549;DHT22;49838;51.798;10.954;2024-01-06T14:15:31;9.40;50.90
64549;DHT22;49838;51.798;10.954;2024-01-06T14:17:59;9.40;50.80
64549;DHT22;49838;51.798;10.954;2024-01-06T14:20:26;9.40;50.70
64549;DHT22;49838;51.798;10.954;2024-01-06T14:22:55;9.40;50.90
64549;DHT22;49838;51.798;10.954;2024-01-06T14:25:22;9.30;51.00
64549;DHT22;49838;51.798;10.954;2024-01-06T14:27:49;9.30;50.90
64549;DHT22;49838;51.798;10.954;2024-01-06T14:30:16;9.30;51.10
64549;DHT22;49838;51.798;10.954;2024-01-06T14:32:45;9.20;51.10
64549;DHT22;49838;51.798;10.954;2024-01-06T14:35:13;9.30;51.10
64549;DHT22;49838;51.798;10.954;2024-01-06T14:37:42;9.30;51.10
64549;DHT22;49838;51.798;10.954;2024-01-06T14:40:12;9.20;51.30
64549;DHT22;49838;51.798;10.954;2024-01-06T14:42:39;9.20;51.30
64549;DHT22;49838;51.798;10.954;2024-01-06T14:45:07;9.10;51.40
64549;DHT22;49838;51.798;10.954;2024-01-06T14:47:35;9.20;51.30
64549;DHT22;49838;51.798;10.954;2024-01-06T14:50:02;9.20;51.20
64549;DHT22;49838;51.798;10.954;2024-01-06T14:52:30;9.20;51.00
64549;DHT22;49838;51.798;10.954;2024-01-06T14:54:57;9.20;51.20
64549;DHT22;49838;51.798;10.954;2024-01-06T14:57:26;9.20;51.10
64549;DHT22;49838;51.798;10.954;2024-01-06T14:59:53;9.20;50.90
64549;DHT22;49838;51.798;10.954;2024-01-06T15:02:20;9.30;50.90
64549;DHT22;49838;51.798;10.954;2024-01-06T15:04:48;9.30;51.00
64549;DHT22;49838;51.798;10.954;2024-01-06T15:07:15;9.30;50.90
64549;DHT22;49838;51.798;10.954;2024-01-06T15:09:42;9.20;51.00
64549;DHT22;49838;51.798;10.954;2024-01-06T15:12:10;9.20;51.30
64549;DHT22;49838;51.798;10.954;2024-01-06T15:14:38;9.00;51.70
64549;DHT22;49838;51.798;10.954;2024-01-06T15:17:05;8.90;52.10
64549;DHT22;49838;51.798;10.954;2024-01-06T15:19:33;8.80;52.20
64549;DHT22;49838;51.798;10.954;2024-01-06T15:22:01;8.70;52.20
64549;DHT22;49838;51.798;10.954;2024-01-06T15:24:28;8.70;52.10
64549;DHT22;49838;51.798;10.954;2024-01-06T15:26:56;8.60;52.40